Share

Kymbo, Sweden

Hentorp (IRSKVDE2) Elev 522 ft | 58.37 °N, 13.83 °E | Change Station

Current weather conditions updated 4 minutes ago

Clear
Clear
55.8 °F
Feels Like 55.8 °F
N
2.2
Wind Variable Wind from NE
Gusts 2.2 mph
Sunrise 5:41 AM
Sunset 8:28 PM
Moon Waning Gibbous

Today is forecast to be nearly the same temperature as yesterday.

Pressure 30.21 in
Visibility 6.2 miles
Clouds
Dew Point 45 °F
Humidity 67%
Rainfall 0.00 in
Snow Depth Not available.
UV Not available.
Pollen Not available.
Air Quality Not available.
Flu Activity Not available.
METAR ESGJ 200650Z AUTO 36005KT 9999 NCD 09/04 Q1023

More Conditions Fewer Conditions

Pressure 30.21 in
Visibility 6.2 miles
Clouds
Dew Point 45 °F
Humidity 67%
Rainfall 0.00 in
Snow Depth Not available.
UV Not available.
Pollen Not available.
Air Quality Not available.
Flu Activity Not available.
METAR ESGJ 200650Z AUTO 36005KT 9999 NCD 09/04 Q1023

More Conditions Fewer Conditions

10-Day Weather Forecast

Almanac

Astronomy

Apr. 20, 2014 Rise Set
Actual Time 5:41 AM CEST 8:28 PM CEST
Civil Twilight 4:56 AM CEST 9:12 PM CEST
Nautical Twilight 3:57 AM CEST 10:12 PM CEST
Astronomical Twilight 2:35 AM CEST 11:37 PM CEST
Moon 1:21 AM CEST 9:14 AM CEST
Length of Visible Light 16h 16m
Length of Day
14h 47m
Tomorrow will be 4m 54s longer.
Waning Gibbous, 72% of the Moon is Illuminated
Today
Waning Gibbous
Apr 22
Last Quarter
Apr 29
New
May 6
First Quarter
May 14
Full

Yesterday's Extremes

Country Highs Country Lows

Community

  • Sunny day at the coast-Cape Arago Lighthouse
    Sunny day at the coast-Cape Arago Lighthouse
  • Cherry Blossoms
    Cherry Blossoms
  • White-Crowned Sparrow
    White-Crowned Sparrow
  • New Day
    New Day
  • Happy Easter!
    Happy Easter!

WunderPhotos

Upload Photos

1,703,085 photos uploaded!

WunderBlogs® & News

Nearby

Snow Depth

Not available.

Coastal Water Temperatures

Place Temperature
No Stations Reporting

Earthquake Activity

City Distance Mag. Time & Date
No recent earthquake activity has been reported nearby.
Minimum magnitude displayed is 2.5.

Nearby Weather Stations

Station Location Temp. Dew Point Humidity Wind Precip. Elev Updated Type
Hentorp, Skövde 55.8 °F 45 °F 67% NE  at  2.2 mph 0.00 in / hr 522 ft 9:00 AM CEST Normal

Show More Stations Show Fewer Stations

What do you think?

We're not finished. Please let us know what you like, what you don't like, and what you are still missing.